Terminal Aerodrome Forecast
Issued by NWS Grand Junction, CO

Home | Current Version | Previous Version | Text Only | Print | Product List | Glossary On
Versions: 1 2 3 4 5 6 7 8 9 10 11 12 13 14 15 16 17 18 19 20 21 22 23 24 25 26 27 28 29 30 31 32 33 34 35 36 37 38 39 40 41 42
475
FTUS45 KGJT 281846 AAG
TAFGJT
TAF AMD
KGJT 281846Z 2819/2918 32007KT P6SM VCTS BKN060CB
      TEMPO 2819/2822 VRB15G25KT -SHRA BKN020
     FM290200 09010KT P6SM VCSH BKN070
     FM291600 21008KT P6SM VCSH OVC060=

USA.gov is the U.S. government's official web portal to all federal, state and local government web resources and services.